sensor_id;sensor_type;location;lat;lon;timestamp;pressure;altitude;pressure_sealevel;temperature;humidity
16461;BME280;8341;42.048;24.650;2023-07-13T00:00:49;97326.19;;;27.50;48.08
16461;BME280;8341;42.048;24.650;2023-07-13T00:03:16;97330.16;;;27.47;47.24
16461;BME280;8341;42.048;24.650;2023-07-13T00:05:43;97308.53;;;27.30;47.82
16461;BME280;8341;42.048;24.650;2023-07-13T00:08:10;97321.34;;;27.24;48.81
16461;BME280;8341;42.048;24.650;2023-07-13T00:10:41;97294.22;;;26.90;48.39
16461;BME280;8341;42.048;24.650;2023-07-13T00:13:09;97335.91;;;27.22;48.47
16461;BME280;8341;42.048;24.650;2023-07-13T00:15:36;97261.91;;;26.80;48.25
16461;BME280;8341;42.048;24.650;2023-07-13T00:18:03;97334.78;;;27.35;48.32
16461;BME280;8341;42.048;24.650;2023-07-13T00:20:30;97334.34;;;27.39;48.34
16461;BME280;8341;42.048;24.650;2023-07-13T00:22:58;97338.41;;;27.45;48.48
16461;BME280;8341;42.048;24.650;2023-07-13T00:25:25;97333.09;;;27.49;48.19
16461;BME280;8341;42.048;24.650;2023-07-13T00:27:55;97303.53;;;27.29;48.17
16461;BME280;8341;42.048;24.650;2023-07-13T00:30:22;97307.38;;;27.33;47.68
16461;BME280;8341;42.048;24.650;2023-07-13T00:32:49;97320.56;;;27.50;47.32
16461;BME280;8341;42.048;24.650;2023-07-13T00:35:16;97323.56;;;27.35;48.08
16461;BME280;8341;42.048;24.650;2023-07-13T00:37:43;97297.59;;;27.25;48.01
16461;BME280;8341;42.048;24.650;2023-07-13T00:40:11;97321.28;;;27.41;49.01
16461;BME280;8341;42.048;24.650;2023-07-13T00:42:38;97298.06;;;26.95;49.29
16461;BME280;8341;42.048;24.650;2023-07-13T00:48:14;97319.66;;;27.11;48.80
16461;BME280;8341;42.048;24.650;2023-07-13T00:50:43;97311.28;;;27.11;48.65
16461;BME280;8341;42.048;24.650;2023-07-13T00:53:11;97311.97;;;27.12;49.83
16461;BME280;8341;42.048;24.650;2023-07-13T00:55:39;97315.78;;;27.07;49.48
16461;BME280;8341;42.048;24.650;2023-07-13T00:58:06;97314.75;;;27.02;49.74
16461;BME280;8341;42.048;24.650;2023-07-13T01:00:35;97309.91;;;27.03;49.93
16461;BME280;8341;42.048;24.650;2023-07-13T01:03:03;97303.44;;;27.10;49.63
16461;BME280;8341;42.048;24.650;2023-07-13T01:05:32;97317.16;;;27.15;49.24
16461;BME280;8341;42.048;24.650;2023-07-13T01:08:00;97314.09;;;27.21;48.93
16461;BME280;8341;42.048;24.650;2023-07-13T01:10:29;97272.59;;;27.00;48.71
16461;BME280;8341;42.048;24.650;2023-07-13T01:13:04;97300.09;;;27.21;48.57
16461;BME280;8341;42.048;24.650;2023-07-13T01:15:39;97299.63;;;27.15;48.16
16461;BME280;8341;42.048;24.650;2023-07-13T01:18:07;97293.72;;;27.11;48.18
16461;BME280;8341;42.048;24.650;2023-07-13T01:20:35;97295.63;;;27.08;48.30
16461;BME280;8341;42.048;24.650;2023-07-13T01:23:05;97280.72;;;26.96;48.37
16461;BME280;8341;42.048;24.650;2023-07-13T01:25:34;97299.88;;;27.09;48.02
16461;BME280;8341;42.048;24.650;2023-07-13T01:28:01;97300.38;;;27.15;47.90
16461;BME280;8341;42.048;24.650;2023-07-13T01:30:28;97300.63;;;27.10;48.13
16461;BME280;8341;42.048;24.650;2023-07-13T01:32:56;97280.41;;;27.02;48.22
16461;BME280;8341;42.048;24.650;2023-07-13T01:35:23;97294.34;;;27.19;47.48
16461;BME280;8341;42.048;24.650;2023-07-13T01:37:52;97294.34;;;27.19;48.75
16461;BME280;8341;42.048;24.650;2023-07-13T01:40:21;97294.88;;;27.08;47.77
16461;BME280;8341;42.048;24.650;2023-07-13T01:42:48;97296.19;;;27.07;48.66
16461;BME280;8341;42.048;24.650;2023-07-13T01:45:15;97290.03;;;26.82;50.10
16461;BME280;8341;42.048;24.650;2023-07-13T01:47:41;97293.97;;;26.96;49.00
16461;BME280;8341;42.048;24.650;2023-07-13T01:50:09;97294.09;;;26.98;48.93
16461;BME280;8341;42.048;24.650;2023-07-13T01:52:36;97294.53;;;26.94;48.31
16461;BME280;8341;42.048;24.650;2023-07-13T01:55:03;97299.97;;;26.92;48.58
16461;BME280;8341;42.048;24.650;2023-07-13T01:57:32;97300.59;;;27.00;48.99
16461;BME280;8341;42.048;24.650;2023-07-13T01:59:59;97283.28;;;26.85;48.91
16461;BME280;8341;42.048;24.650;2023-07-13T02:02:26;97280.84;;;26.71;48.77
16461;BME280;8341;42.048;24.650;2023-07-13T02:04:53;97303.88;;;26.80;49.23
16461;BME280;8341;42.048;24.650;2023-07-13T02:07:20;97304.91;;;26.57;49.19
16461;BME280;8341;42.048;24.650;2023-07-13T02:09:47;97310.97;;;26.63;49.40
16461;BME280;8341;42.048;24.650;2023-07-13T02:12:14;97317.09;;;26.52;49.05
16461;BME280;8341;42.048;24.650;2023-07-13T02:14:42;97316.59;;;26.46;49.68
16461;BME280;8341;42.048;24.650;2023-07-13T02:17:09;97309.88;;;26.32;50.05
16461;BME280;8341;42.048;24.650;2023-07-13T02:19:36;97309.63;;;26.38;49.49
16461;BME280;8341;42.048;24.650;2023-07-13T02:22:03;97336.34;;;26.48;49.65
16461;BME280;8341;42.048;24.650;2023-07-13T02:24:30;97332.78;;;26.48;49.77
16461;BME280;8341;42.048;24.650;2023-07-13T02:26:57;97335.69;;;26.40;49.38
16461;BME280;8341;42.048;24.650;2023-07-13T02:29:24;97316.63;;;26.29;49.76
16461;BME280;8341;42.048;24.650;2023-07-13T02:31:52;97335.38;;;26.36;50.54
16461;BME280;8341;42.048;24.650;2023-07-13T02:34:19;97305.03;;;26.16;50.52
16461;BME280;8341;42.048;24.650;2023-07-13T02:36:46;97332.66;;;26.29;51.14
16461;BME280;8341;42.048;24.650;2023-07-13T02:39:13;97339.16;;;26.31;51.65
16461;BME280;8341;42.048;24.650;2023-07-13T02:41:40;97339.72;;;26.13;51.51
16461;BME280;8341;42.048;24.650;2023-07-13T02:44:07;97339.34;;;26.16;52.83
16461;BME280;8341;42.048;24.650;2023-07-13T02:46:36;97333.75;;;26.16;51.45
16461;BME280;8341;42.048;24.650;2023-07-13T02:49:05;97334.53;;;26.09;52.40
16461;BME280;8341;42.048;24.650;2023-07-13T02:51:32;97331.16;;;26.10;50.91
16461;BME280;8341;42.048;24.650;2023-07-13T02:53:59;97326.31;;;26.11;51.81
16461;BME280;8341;42.048;24.650;2023-07-13T02:56:28;97336.69;;;26.18;52.21
16461;BME280;8341;42.048;24.650;2023-07-13T02:58:56;97333.59;;;26.06;51.46
16461;BME280;8341;42.048;24.650;2023-07-13T03:01:23;97330.09;;;26.06;51.69
16461;BME280;8341;42.048;24.650;2023-07-13T03:03:50;97334.88;;;26.13;51.28
16461;BME280;8341;42.048;24.650;2023-07-13T03:06:19;97343.28;;;26.13;50.59
16461;BME280;8341;42.048;24.650;2023-07-13T03:08:47;97330.66;;;26.04;50.09
16461;BME280;8341;42.048;24.650;2023-07-13T03:11:17;97342.78;;;26.24;51.66
16461;BME280;8341;42.048;24.650;2023-07-13T03:13:45;97343.25;;;26.30;52.20
16461;BME280;8341;42.048;24.650;2023-07-13T03:16:12;97336.28;;;26.22;52.35
16461;BME280;8341;42.048;24.650;2023-07-13T03:18:41;97336.19;;;26.12;52.61
16461;BME280;8341;42.048;24.650;2023-07-13T03:21:08;97337.91;;;25.66;53.56
16461;BME280;8341;42.048;24.650;2023-07-13T03:23:36;97338.44;;;25.72;51.62
16461;BME280;8341;42.048;24.650;2023-07-13T03:26:05;97339.63;;;25.86;50.64
16461;BME280;8341;42.048;24.650;2023-07-13T03:28:33;97328.91;;;25.92;51.74
16461;BME280;8341;42.048;24.650;2023-07-13T03:31:01;97343.41;;;25.98;50.22
16461;BME280;8341;42.048;24.650;2023-07-13T03:33:29;97339.34;;;26.16;50.81
16461;BME280;8341;42.048;24.650;2023-07-13T03:35:56;97330.84;;;26.24;52.20
16461;BME280;8341;42.048;24.650;2023-07-13T03:38:23;97330.69;;;26.22;51.37
16461;BME280;8341;42.048;24.650;2023-07-13T03:40:53;97330.44;;;26.27;52.94
16461;BME280;8341;42.048;24.650;2023-07-13T03:43:20;97308.63;;;26.08;52.35
16461;BME280;8341;42.048;24.650;2023-07-13T03:45:47;97318.28;;;26.15;52.49
16461;BME280;8341;42.048;24.650;2023-07-13T03:48:14;97299.59;;;26.00;50.82
16461;BME280;8341;42.048;24.650;2023-07-13T03:50:41;97298.38;;;26.11;51.51
16461;BME280;8341;42.048;24.650;2023-07-13T03:53:08;97311.38;;;26.16;50.88
16461;BME280;8341;42.048;24.650;2023-07-13T03:55:35;97326.06;;;26.34;50.12
16461;BME280;8341;42.048;24.650;2023-07-13T03:58:25;97323.38;;;26.26;50.34
16461;BME280;8341;42.048;24.650;2023-07-13T04:00:52;97322.22;;;26.29;50.96
16461;BME280;8341;42.048;24.650;2023-07-13T04:03:19;97311.28;;;26.24;49.61
16461;BME280;8341;42.048;24.650;2023-07-13T04:05:46;97320.41;;;26.41;49.98
16461;BME280;8341;42.048;24.650;2023-07-13T04:08:13;97330.81;;;26.58;50.80
16461;BME280;8341;42.048;24.650;2023-07-13T04:10:40;97324.13;;;26.70;47.96
16461;BME280;8341;42.048;24.650;2023-07-13T04:13:07;97329.56;;;26.86;49.21
16461;BME280;8341;42.048;24.650;2023-07-13T04:15:35;97338.84;;;26.88;49.29
16461;BME280;8341;42.048;24.650;2023-07-13T04:18:02;97332.66;;;26.90;49.62
16461;BME280;8341;42.048;24.650;2023-07-13T04:20:29;97324.16;;;26.97;50.05
16461;BME280;8341;42.048;24.650;2023-07-13T04:22:56;97312.50;;;26.91;49.27
16461;BME280;8341;42.048;24.650;2023-07-13T04:25:24;97340.31;;;27.16;49.01
16461;BME280;8341;42.048;24.650;2023-07-13T04:27:50;97329.63;;;27.31;47.94
16461;BME280;8341;42.048;24.650;2023-07-13T04:30:18;97342.97;;;28.25;46.40
16461;BME280;8341;42.048;24.650;2023-07-13T04:32:48;97323.97;;;29.11;45.45
16461;BME280;8341;42.048;24.650;2023-07-13T04:35:15;97331.88;;;29.65;43.99
16461;BME280;8341;42.048;24.650;2023-07-13T04:37:42;97352.44;;;30.19;44.47
16461;BME280;8341;42.048;24.650;2023-07-13T04:40:09;97345.59;;;30.44;43.50
16461;BME280;8341;42.048;24.650;2023-07-13T04:42:37;97312.41;;;29.57;44.19
16461;BME280;8341;42.048;24.650;2023-07-13T04:45:05;97351.63;;;29.86;44.67
16461;BME280;8341;42.048;24.650;2023-07-13T04:47:32;97356.63;;;29.57;45.37
16461;BME280;8341;42.048;24.650;2023-07-13T04:50:00;97351.81;;;29.79;45.61
16461;BME280;8341;42.048;24.650;2023-07-13T04:52:27;97352.13;;;29.42;46.14
16461;BME280;8341;42.048;24.650;2023-07-13T04:54:54;97359.13;;;30.14;45.13
16461;BME280;8341;42.048;24.650;2023-07-13T04:57:21;97356.97;;;30.03;45.30
16461;BME280;8341;42.048;24.650;2023-07-13T04:59:48;97356.78;;;30.32;44.96
16461;BME280;8341;42.048;24.650;2023-07-13T05:02:15;97349.00;;;30.63;44.15
16461;BME280;8341;42.048;24.650;2023-07-13T05:04:42;97359.13;;;31.45;42.24
16461;BME280;8341;42.048;24.650;2023-07-13T05:07:10;97318.75;;;31.31;41.23
16461;BME280;8341;42.048;24.650;2023-07-13T05:09:37;97345.72;;;32.04;40.77
16461;BME280;8341;42.048;24.650;2023-07-13T05:12:06;97358.50;;;31.82;41.06
16461;BME280;8341;42.048;24.650;2023-07-13T05:14:33;97348.63;;;31.13;43.71
16461;BME280;8341;42.048;24.650;2023-07-13T05:17:00;97348.66;;;30.05;45.60
16461;BME280;8341;42.048;24.650;2023-07-13T05:19:27;97349.19;;;29.61;47.57
16461;BME280;8341;42.048;24.650;2023-07-13T05:21:54;97362.16;;;29.45;49.31
16461;BME280;8341;42.048;24.650;2023-07-13T05:24:23;97355.06;;;29.44;49.73
16461;BME280;8341;42.048;24.650;2023-07-13T05:26:50;97363.53;;;29.35;50.79
16461;BME280;8341;42.048;24.650;2023-07-13T05:29:17;97369.44;;;29.39;50.87
16461;BME280;8341;42.048;24.650;2023-07-13T05:31:43;97358.81;;;29.18;51.61
16461;BME280;8341;42.048;24.650;2023-07-13T05:34:10;97311.97;;;28.42;51.98
16461;BME280;8341;42.048;24.650;2023-07-13T05:36:37;97323.94;;;28.04;53.71
16461;BME280;8341;42.048;24.650;2023-07-13T05:39:04;97356.72;;;28.21;54.44
16461;BME280;8341;42.048;24.650;2023-07-13T05:41:32;97358.47;;;28.07;55.31
16461;BME280;8341;42.048;24.650;2023-07-13T05:43:59;97358.00;;;28.01;55.64
16461;BME280;8341;42.048;24.650;2023-07-13T05:46:27;97358.47;;;28.07;55.70
16461;BME280;8341;42.048;24.650;2023-07-13T05:48:54;97352.81;;;27.97;55.87
16461;BME280;8341;42.048;24.650;2023-07-13T05:51:20;97360.78;;;28.01;55.25
16461;BME280;8341;42.048;24.650;2023-07-13T05:53:47;97355.53;;;28.14;55.16
16461;BME280;8341;42.048;24.650;2023-07-13T05:56:14;97357.44;;;28.31;54.92
16461;BME280;8341;42.048;24.650;2023-07-13T05:58:42;97349.63;;;28.39;54.06
16461;BME280;8341;42.048;24.650;2023-07-13T06:01:11;97336.50;;;28.32;53.13
16461;BME280;8341;42.048;24.650;2023-07-13T06:03:39;97355.97;;;28.49;53.97
16461;BME280;8341;42.048;24.650;2023-07-13T06:06:07;97356.84;;;28.51;54.44
16461;BME280;8341;42.048;24.650;2023-07-13T06:08:35;97364.53;;;28.51;53.95
16461;BME280;8341;42.048;24.650;2023-07-13T06:11:03;97359.53;;;28.49;53.77
16461;BME280;8341;42.048;24.650;2023-07-13T06:13:30;97345.34;;;28.67;53.63
16461;BME280;8341;42.048;24.650;2023-07-13T06:15:59;97374.00;;;28.75;53.51
16461;BME280;8341;42.048;24.650;2023-07-13T06:18:25;97371.91;;;28.85;53.74
16461;BME280;8341;42.048;24.650;2023-07-13T06:20:52;97373.69;;;28.90;52.46
16461;BME280;8341;42.048;24.650;2023-07-13T06:23:19;97375.31;;;28.54;53.54
16461;BME280;8341;42.048;24.650;2023-07-13T06:25:46;97370.72;;;28.59;53.29
16461;BME280;8341;42.048;24.650;2023-07-13T06:28:13;97367.19;;;28.49;54.01
16461;BME280;8341;42.048;24.650;2023-07-13T06:30:39;97372.84;;;28.68;53.55
16461;BME280;8341;42.048;24.650;2023-07-13T06:33:08;97372.06;;;28.77;53.43
16461;BME280;8341;42.048;24.650;2023-07-13T06:35:34;97345.97;;;28.65;53.09
16461;BME280;8341;42.048;24.650;2023-07-13T06:38:01;97357.72;;;28.92;51.57
16461;BME280;8341;42.048;24.650;2023-07-13T06:40:28;97346.47;;;28.92;50.92
16461;BME280;8341;42.048;24.650;2023-07-13T06:42:56;97370.38;;;29.22;49.98
16461;BME280;8341;42.048;24.650;2023-07-13T06:45:22;97367.09;;;29.26;51.63
16461;BME280;8341;42.048;24.650;2023-07-13T06:47:49;97348.94;;;29.17;50.35
16461;BME280;8341;42.048;24.650;2023-07-13T06:50:18;97361.81;;;29.51;50.13
16461;BME280;8341;42.048;24.650;2023-07-13T06:52:44;97372.66;;;29.75;49.79
16461;BME280;8341;42.048;24.650;2023-07-13T06:55:11;97369.16;;;29.96;48.78
16461;BME280;8341;42.048;24.650;2023-07-13T06:57:38;97375.34;;;30.04;48.21
16461;BME280;8341;42.048;24.650;2023-07-13T07:00:06;97382.97;;;30.13;47.74
16461;BME280;8341;42.048;24.650;2023-07-13T07:02:35;97384.16;;;30.10;48.20
16461;BME280;8341;42.048;24.650;2023-07-13T07:05:02;97367.69;;;30.16;47.10
16461;BME280;8341;42.048;24.650;2023-07-13T07:07:30;97360.75;;;30.17;47.48
16461;BME280;8341;42.048;24.650;2023-07-13T07:09:57;97376.56;;;30.22;46.46
16461;BME280;8341;42.048;24.650;2023-07-13T07:12:23;97359.66;;;30.01;46.97
16461;BME280;8341;42.048;24.650;2023-07-13T07:14:50;97372.50;;;30.35;46.97
16461;BME280;8341;42.048;24.650;2023-07-13T07:17:17;97370.47;;;30.47;46.45
16461;BME280;8341;42.048;24.650;2023-07-13T07:19:44;97368.63;;;30.52;46.42
16461;BME280;8341;42.048;24.650;2023-07-13T07:22:11;97376.22;;;30.49;46.43
16461;BME280;8341;42.048;24.650;2023-07-13T07:24:39;97376.84;;;30.59;46.46
16461;BME280;8341;42.048;24.650;2023-07-13T07:27:06;97363.78;;;30.64;46.17
16461;BME280;8341;42.048;24.650;2023-07-13T07:29:33;97373.28;;;30.80;45.92
16461;BME280;8341;42.048;24.650;2023-07-13T07:32:00;97373.88;;;30.78;45.73
16461;BME280;8341;42.048;24.650;2023-07-13T07:34:26;97372.06;;;30.83;45.03
16461;BME280;8341;42.048;24.650;2023-07-13T07:36:53;97368.44;;;30.92;45.31
16461;BME280;8341;42.048;24.650;2023-07-13T07:39:20;97368.28;;;30.90;45.14
16461;BME280;8341;42.048;24.650;2023-07-13T07:41:48;97368.97;;;31.12;45.39
16461;BME280;8341;42.048;24.650;2023-07-13T07:44:15;97366.53;;;31.29;44.21
16461;BME280;8341;42.048;24.650;2023-07-13T07:46:42;97368.50;;;31.38;44.28
16461;BME280;8341;42.048;24.650;2023-07-13T07:49:09;97367.94;;;31.51;43.68
16461;BME280;8341;42.048;24.650;2023-07-13T07:51:37;97370.72;;;31.40;44.08
16461;BME280;8341;42.048;24.650;2023-07-13T07:54:04;97374.19;;;31.62;43.21
16461;BME280;8341;42.048;24.650;2023-07-13T07:56:31;97374.06;;;31.71;43.06
16461;BME280;8341;42.048;24.650;2023-07-13T07:59:00;97375.41;;;31.70;42.10
16461;BME280;8341;42.048;24.650;2023-07-13T08:01:27;97378.22;;;31.93;41.99
16461;BME280;8341;42.048;24.650;2023-07-13T08:03:53;97369.53;;;32.01;41.23
16461;BME280;8341;42.048;24.650;2023-07-13T08:06:20;97369.03;;;32.04;41.51
16461;BME280;8341;42.048;24.650;2023-07-13T08:08:47;97343.72;;;32.18;41.26
16461;BME280;8341;42.048;24.650;2023-07-13T08:11:14;97367.91;;;32.46;40.12
16461;BME280;8341;42.048;24.650;2023-07-13T08:13:41;97354.91;;;32.53;40.02
16461;BME280;8341;42.048;24.650;2023-07-13T08:16:10;97366.84;;;32.76;38.84
16461;BME280;8341;42.048;24.650;2023-07-13T08:18:37;97371.69;;;32.88;39.19
16461;BME280;8341;42.048;24.650;2023-07-13T08:21:05;97359.16;;;32.91;39.49
16461;BME280;8341;42.048;24.650;2023-07-13T08:23:32;97357.47;;;33.11;39.47
16461;BME280;8341;42.048;24.650;2023-07-13T08:25:58;97359.47;;;33.22;38.92
16461;BME280;8341;42.048;24.650;2023-07-13T08:28:27;97334.16;;;32.99;38.46
16461;BME280;8341;42.048;24.650;2023-07-13T08:30:54;97348.00;;;33.45;37.43
16461;BME280;8341;42.048;24.650;2023-07-13T08:33:22;97357.69;;;33.28;37.68
16461;BME280;8341;42.048;24.650;2023-07-13T08:35:50;97349.47;;;33.46;38.58
16461;BME280;8341;42.048;24.650;2023-07-13T08:38:18;97351.16;;;33.51;37.87
16461;BME280;8341;42.048;24.650;2023-07-13T08:40:50;97353.81;;;33.74;37.45
16461;BME280;8341;42.048;24.650;2023-07-13T08:43:22;97360.19;;;33.88;36.29
16461;BME280;8341;42.048;24.650;2023-07-13T08:45:55;97340.28;;;34.14;36.39
16461;BME280;8341;42.048;24.650;2023-07-13T08:48:28;97348.31;;;34.33;36.12
16461;BME280;8341;42.048;24.650;2023-07-13T08:51:01;97320.63;;;34.31;34.77
16461;BME280;8341;42.048;24.650;2023-07-13T08:53:32;97339.09;;;34.32;33.97
16461;BME280;8341;42.048;24.650;2023-07-13T08:56:01;97348.34;;;34.62;34.65
16461;BME280;8341;42.048;24.650;2023-07-13T08:58:28;97336.13;;;34.73;34.02
16461;BME280;8341;42.048;24.650;2023-07-13T09:01:01;97339.66;;;34.87;34.24
16461;BME280;8341;42.048;24.650;2023-07-13T09:03:37;97332.25;;;34.96;34.69
16461;BME280;8341;42.048;24.650;2023-07-13T09:06:11;97340.88;;;34.69;33.62
16461;BME280;8341;42.048;24.650;2023-07-13T09:08:48;97339.66;;;35.03;33.31
16461;BME280;8341;42.048;24.650;2023-07-13T09:11:27;97325.88;;;35.27;33.59
16461;BME280;8341;42.048;24.650;2023-07-13T09:14:01;97333.66;;;35.42;32.94
16461;BME280;8341;42.048;24.650;2023-07-13T09:16:31;97332.94;;;35.26;32.33
16461;BME280;8341;42.048;24.650;2023-07-13T09:19:04;97316.84;;;35.46;31.79
16461;BME280;8341;42.048;24.650;2023-07-13T09:21:35;97321.59;;;35.57;31.28
16461;BME280;8341;42.048;24.650;2023-07-13T09:24:30;97321.84;;;35.78;30.51
16461;BME280;8341;42.048;24.650;2023-07-13T09:27:01;97305.78;;;36.01;31.73
16461;BME280;8341;42.048;24.650;2023-07-13T09:29:32;97304.75;;;35.76;30.18
16461;BME280;8341;42.048;24.650;2023-07-13T09:32:03;97273.22;;;35.86;29.74
16461;BME280;8341;42.048;24.650;2023-07-13T09:34:34;97310.16;;;36.04;29.93
16461;BME280;8341;42.048;24.650;2023-07-13T09:37:00;97297.13;;;36.14;29.47
16461;BME280;8341;42.048;24.650;2023-07-13T09:39:29;97301.03;;;36.05;27.94
16461;BME280;8341;42.048;24.650;2023-07-13T09:42:02;97290.50;;;36.25;28.05
16461;BME280;8341;42.048;24.650;2023-07-13T09:44:35;97290.94;;;36.53;28.24
16461;BME280;8341;42.048;24.650;2023-07-13T09:47:02;97284.69;;;36.57;27.51
16461;BME280;8341;42.048;24.650;2023-07-13T09:49:36;97280.63;;;36.62;27.81
16461;BME280;8341;42.048;24.650;2023-07-13T09:52:06;97275.09;;;36.66;27.87
16461;BME280;8341;42.048;24.650;2023-07-13T09:54:34;97258.81;;;36.86;27.49
16461;BME280;8341;42.048;24.650;2023-07-13T09:57:08;97266.09;;;36.91;26.89
16461;BME280;8341;42.048;24.650;2023-07-13T09:59:40;97261.13;;;37.09;27.15
16461;BME280;8341;42.048;24.650;2023-07-13T10:02:23;97260.72;;;37.36;26.24
16461;BME280;8341;42.048;24.650;2023-07-13T10:04:56;97256.19;;;37.49;26.22
16461;BME280;8341;42.048;24.650;2023-07-13T10:07:24;97254.78;;;37.30;26.60
16461;BME280;8341;42.048;24.650;2023-07-13T10:09:52;97220.31;;;37.00;26.10
16461;BME280;8341;42.048;24.650;2023-07-13T10:12:20;97227.28;;;37.17;25.87
16461;BME280;8341;42.048;24.650;2023-07-13T10:14:50;97246.03;;;37.63;26.46
16461;BME280;8341;42.048;24.650;2023-07-13T10:17:19;97238.41;;;37.48;25.47
16461;BME280;8341;42.048;24.650;2023-07-13T10:19:52;97241.50;;;37.17;25.54
16461;BME280;8341;42.048;24.650;2023-07-13T10:22:24;97240.13;;;37.38;25.11
16461;BME280;8341;42.048;24.650;2023-07-13T10:24:54;97231.53;;;37.55;26.58
16461;BME280;8341;42.048;24.650;2023-07-13T10:27:27;97232.94;;;37.54;25.42
16461;BME280;8341;42.048;24.650;2023-07-13T10:30:02;97227.78;;;37.71;26.38
16461;BME280;8341;42.048;24.650;2023-07-13T10:32:34;97233.13;;;37.60;24.92
16461;BME280;8341;42.048;24.650;2023-07-13T10:35:00;97204.34;;;37.72;25.21
16461;BME280;8341;42.048;24.650;2023-07-13T10:37:35;97226.91;;;38.07;24.64
16461;BME280;8341;42.048;24.650;2023-07-13T10:40:05;97227.81;;;38.14;24.80
16461;BME280;8341;42.048;24.650;2023-07-13T10:42:37;97218.44;;;37.88;24.34
16461;BME280;8341;42.048;24.650;2023-07-13T10:45:13;97230.38;;;37.84;24.49
16461;BME280;8341;42.048;24.650;2023-07-13T10:47:40;97228.25;;;37.85;24.34
16461;BME280;8341;42.048;24.650;2023-07-13T10:50:09;97223.59;;;38.15;25.10
16461;BME280;8341;42.048;24.650;2023-07-13T10:52:46;97228.81;;;38.22;23.83
16461;BME280;8341;42.048;24.650;2023-07-13T10:55:36;97227.94;;;37.96;24.33
16461;BME280;8341;42.048;24.650;2023-07-13T10:58:12;97190.97;;;37.77;24.26
16461;BME280;8341;42.048;24.650;2023-07-13T11:00:46;97226.84;;;38.05;24.09
16461;BME280;8341;42.048;24.650;2023-07-13T11:03:16;97220.84;;;38.19;24.38
16461;BME280;8341;42.048;24.650;2023-07-13T11:05:44;97202.94;;;38.36;24.07
16461;BME280;8341;42.048;24.650;2023-07-13T11:08:19;97209.97;;;38.57;24.12
16461;BME280;8341;42.048;24.650;2023-07-13T11:10:52;97209.97;;;38.80;23.84
16461;BME280;8341;42.048;24.650;2023-07-13T11:13:56;97210.13;;;39.10;23.26
16461;BME280;8341;42.048;24.650;2023-07-13T11:16:51;97207.28;;;39.10;23.00
16461;BME280;8341;42.048;24.650;2023-07-13T11:19:28;97200.28;;;38.90;22.63
16461;BME280;8341;42.048;24.650;2023-07-13T11:22:12;97195.09;;;39.08;22.59
16461;BME280;8341;42.048;24.650;2023-07-13T11:25:24;97201.00;;;39.16;22.54
16461;BME280;8341;42.048;24.650;2023-07-13T11:28:04;97204.13;;;39.24;23.57
16461;BME280;8341;42.048;24.650;2023-07-13T11:30:36;97162.66;;;38.71;22.51
16461;BME280;8341;42.048;24.650;2023-07-13T11:33:15;97193.78;;;39.13;22.79
16461;BME280;8341;42.048;24.650;2023-07-13T11:35:49;97192.91;;;39.32;22.36
16461;BME280;8341;42.048;24.650;2023-07-13T11:38:21;97185.03;;;39.30;22.00
16461;BME280;8341;42.048;24.650;2023-07-13T11:40:52;97188.94;;;39.43;21.95
16461;BME280;8341;42.048;24.650;2023-07-13T11:43:20;97179.00;;;39.18;21.51
16461;BME280;8341;42.048;24.650;2023-07-13T11:45:49;97181.97;;;38.99;22.05
16461;BME280;8341;42.048;24.650;2023-07-13T11:48:24;97181.78;;;39.16;21.61
16461;BME280;8341;42.048;24.650;2023-07-13T11:50:59;97186.28;;;39.00;22.29
16461;BME280;8341;42.048;24.650;2023-07-13T11:53:30;97182.34;;;39.11;21.66
16461;BME280;8341;42.048;24.650;2023-07-13T11:56:00;97148.41;;;38.71;21.76
16461;BME280;8341;42.048;24.650;2023-07-13T11:58:28;97184.72;;;39.18;22.19
16461;BME280;8341;42.048;24.650;2023-07-13T12:00:58;97173.66;;;39.07;21.93
16461;BME280;8341;42.048;24.650;2023-07-13T12:03:28;97180.44;;;39.19;20.94
16461;BME280;8341;42.048;24.650;2023-07-13T12:06:00;97169.38;;;39.31;20.85
16461;BME280;8341;42.048;24.650;2023-07-13T12:08:27;97164.50;;;39.36;20.65
16461;BME280;8341;42.048;24.650;2023-07-13T12:11:02;97166.78;;;39.41;20.96
16461;BME280;8341;42.048;24.650;2023-07-13T12:13:36;97131.34;;;39.23;21.73
16461;BME280;8341;42.048;24.650;2023-07-13T12:16:11;97143.69;;;39.31;21.34
16461;BME280;8341;42.048;24.650;2023-07-13T12:18:39;97156.41;;;39.26;20.34
16461;BME280;8341;42.048;24.650;2023-07-13T12:21:13;97145.31;;;39.38;20.56
16461;BME280;8341;42.048;24.650;2023-07-13T12:23:43;97147.41;;;39.38;20.18
16461;BME280;8341;42.048;24.650;2023-07-13T12:26:11;97135.53;;;39.48;19.92
16461;BME280;8341;42.048;24.650;2023-07-13T12:28:45;97126.56;;;39.59;19.81
16461;BME280;8341;42.048;24.650;2023-07-13T12:31:24;97123.94;;;39.67;20.87
16461;BME280;8341;42.048;24.650;2023-07-13T12:33:57;97101.41;;;39.52;20.66
16461;BME280;8341;42.048;24.650;2023-07-13T12:36:25;97125.53;;;39.74;20.10
16461;BME280;8341;42.048;24.650;2023-07-13T12:38:52;97128.19;;;39.66;21.22
16461;BME280;8341;42.048;24.650;2023-07-13T12:41:21;97126.16;;;39.71;20.83
16461;BME280;8341;42.048;24.650;2023-07-13T12:43:48;97125.53;;;39.74;20.38
16461;BME280;8341;42.048;24.650;2023-07-13T12:46:18;97121.94;;;39.46;20.20
16461;BME280;8341;42.048;24.650;2023-07-13T12:48:49;97123.09;;;39.35;20.51
16461;BME280;8341;42.048;24.650;2023-07-13T12:51:17;97117.84;;;39.25;20.42
16461;BME280;8341;42.048;24.650;2023-07-13T12:53:49;97118.16;;;39.12;20.12
16461;BME280;8341;42.048;24.650;2023-07-13T12:56:22;97106.69;;;39.35;20.67
16461;BME280;8341;42.048;24.650;2023-07-13T12:58:49;97104.56;;;39.36;20.61
16461;BME280;8341;42.048;24.650;2023-07-13T17:54:17;97026.28;;;33.01;36.48
16461;BME280;8341;42.048;24.650;2023-07-13T17:56:45;97005.63;;;32.83;36.79
16461;BME280;8341;42.048;24.650;2023-07-13T17:59:11;97021.22;;;32.84;36.45
16461;BME280;8341;42.048;24.650;2023-07-13T18:01:40;97029.59;;;32.82;36.75
16461;BME280;8341;42.048;24.650;2023-07-13T18:04:08;97024.47;;;32.78;36.66
16461;BME280;8341;42.048;24.650;2023-07-13T18:06:38;97044.75;;;32.74;36.73